sensor_id;sensor_type;location;lat;lon;timestamp;P1;durP1;ratioP1;P2;durP2;ratioP2
38717;SDS011;24468;52.128;9.278;2023-03-21T00:01:55;18.02;;;10.52;;
38717;SDS011;24468;52.128;9.278;2023-03-21T00:04:22;12.65;;;9.57;;
38717;SDS011;24468;52.128;9.278;2023-03-21T00:06:49;15.15;;;9.45;;
38717;SDS011;24468;52.128;9.278;2023-03-21T00:09:15;16.48;;;9.52;;
38717;SDS011;24468;52.128;9.278;2023-03-21T00:11:41;14.00;;;8.68;;
38717;SDS011;24468;52.128;9.278;2023-03-21T00:14:06;17.52;;;9.90;;
38717;SDS011;24468;52.128;9.278;2023-03-21T00:16:33;14.70;;;10.05;;
38717;SDS011;24468;52.128;9.278;2023-03-21T00:18:59;14.52;;;9.40;;
38717;SDS011;24468;52.128;9.278;2023-03-21T00:21:27;17.20;;;10.68;;
38717;SDS011;24468;52.128;9.278;2023-03-21T00:23:56;16.23;;;10.77;;
38717;SDS011;24468;52.128;9.278;2023-03-21T00:26:22;19.35;;;9.90;;
38717;SDS011;24468;52.128;9.278;2023-03-21T00:28:48;16.63;;;11.35;;
38717;SDS011;24468;52.128;9.278;2023-03-21T00:31:14;24.73;;;11.13;;
38717;SDS011;24468;52.128;9.278;2023-03-21T00:33:40;17.23;;;10.45;;
38717;SDS011;24468;52.128;9.278;2023-03-21T00:36:07;14.15;;;10.25;;
38717;SDS011;24468;52.128;9.278;2023-03-21T00:38:39;16.80;;;10.13;;
38717;SDS011;24468;52.128;9.278;2023-03-21T00:41:06;15.10;;;10.55;;
38717;SDS011;24468;52.128;9.278;2023-03-21T00:43:34;13.57;;;10.98;;
38717;SDS011;24468;52.128;9.278;2023-03-21T00:46:00;15.73;;;10.07;;
38717;SDS011;24468;52.128;9.278;2023-03-21T00:48:27;16.83;;;10.50;;
38717;SDS011;24468;52.128;9.278;2023-03-21T00:50:53;13.30;;;9.50;;
38717;SDS011;24468;52.128;9.278;2023-03-21T00:53:21;14.82;;;10.25;;
38717;SDS011;24468;52.128;9.278;2023-03-21T00:55:48;16.13;;;9.95;;
38717;SDS011;24468;52.128;9.278;2023-03-21T00:58:14;14.95;;;9.15;;
38717;SDS011;24468;52.128;9.278;2023-03-21T01:00:40;15.20;;;10.80;;
38717;SDS011;24468;52.128;9.278;2023-03-21T01:03:09;15.80;;;10.10;;
38717;SDS011;24468;52.128;9.278;2023-03-21T01:05:38;14.75;;;9.73;;
38717;SDS011;24468;52.128;9.278;2023-03-21T01:08:25;17.70;;;10.20;;
38717;SDS011;24468;52.128;9.278;2023-03-21T01:10:52;17.30;;;10.73;;
38717;SDS011;24468;52.128;9.278;2023-03-21T01:13:20;11.38;;;9.75;;
38717;SDS011;24468;52.128;9.278;2023-03-21T01:15:49;14.20;;;9.85;;
38717;SDS011;24468;52.128;9.278;2023-03-21T01:18:19;20.35;;;10.80;;
38717;SDS011;24468;52.128;9.278;2023-03-21T01:20:49;14.57;;;9.23;;
38717;SDS011;24468;52.128;9.278;2023-03-21T01:23:15;22.50;;;10.30;;
38717;SDS011;24468;52.128;9.278;2023-03-21T01:25:41;15.63;;;9.88;;
38717;SDS011;24468;52.128;9.278;2023-03-21T01:28:07;14.02;;;9.60;;
38717;SDS011;24468;52.128;9.278;2023-03-21T01:30:34;14.77;;;10.15;;
38717;SDS011;24468;52.128;9.278;2023-03-21T01:33:00;15.68;;;10.40;;
38717;SDS011;24468;52.128;9.278;2023-03-21T01:35:25;14.65;;;8.93;;
38717;SDS011;24468;52.128;9.278;2023-03-21T01:37:51;13.73;;;9.63;;
38717;SDS011;24468;52.128;9.278;2023-03-21T01:40:17;14.63;;;9.38;;
38717;SDS011;24468;52.128;9.278;2023-03-21T01:42:48;14.60;;;9.15;;
38717;SDS011;24468;52.128;9.278;2023-03-21T01:48:23;11.52;;;8.38;;
38717;SDS011;24468;52.128;9.278;2023-03-21T01:50:50;10.65;;;7.93;;
38717;SDS011;24468;52.128;9.278;2023-03-21T01:53:17;16.20;;;8.93;;
38717;SDS011;24468;52.128;9.278;2023-03-21T01:55:46;14.75;;;9.50;;
38717;SDS011;24468;52.128;9.278;2023-03-21T01:58:13;14.85;;;10.00;;
38717;SDS011;24468;52.128;9.278;2023-03-21T02:00:42;14.32;;;10.10;;
38717;SDS011;24468;52.128;9.278;2023-03-21T02:03:10;14.55;;;9.20;;
38717;SDS011;24468;52.128;9.278;2023-03-21T02:05:49;14.15;;;9.88;;
38717;SDS011;24468;52.128;9.278;2023-03-21T02:08:30;13.35;;;9.05;;
38717;SDS011;24468;52.128;9.278;2023-03-21T02:10:57;15.30;;;8.93;;
38717;SDS011;24468;52.128;9.278;2023-03-21T02:13:23;13.23;;;9.38;;
38717;SDS011;24468;52.128;9.278;2023-03-21T02:15:52;12.85;;;8.65;;
38717;SDS011;24468;52.128;9.278;2023-03-21T02:40:01;14.82;;;9.77;;
38717;SDS011;24468;52.128;9.278;2023-03-21T02:43:02;10.10;;;8.18;;
38717;SDS011;24468;52.128;9.278;2023-03-21T02:48:59;13.03;;;9.17;;
38717;SDS011;24468;52.128;9.278;2023-03-21T02:51:48;14.10;;;9.50;;
38717;SDS011;24468;52.128;9.278;2023-03-21T02:54:16;14.00;;;9.32;;
38717;SDS011;24468;52.128;9.278;2023-03-21T02:56:46;15.05;;;9.00;;
38717;SDS011;24468;52.128;9.278;2023-03-21T02:59:14;12.70;;;9.35;;
38717;SDS011;24468;52.128;9.278;2023-03-21T03:01:41;17.73;;;10.43;;
38717;SDS011;24468;52.128;9.278;2023-03-21T03:04:17;19.73;;;9.45;;
38717;SDS011;24468;52.128;9.278;2023-03-21T03:09:30;12.88;;;9.45;;
38717;SDS011;24468;52.128;9.278;2023-03-21T03:12:30;19.15;;;9.80;;
38717;SDS011;24468;52.128;9.278;2023-03-21T03:15:06;11.43;;;9.02;;
38717;SDS011;24468;52.128;9.278;2023-03-21T03:24:14;15.38;;;10.23;;
38717;SDS011;24468;52.128;9.278;2023-03-21T03:26:50;16.58;;;10.18;;
38717;SDS011;24468;52.128;9.278;2023-03-21T03:29:28;15.88;;;9.40;;
38717;SDS011;24468;52.128;9.278;2023-03-21T03:32:09;12.73;;;9.98;;
38717;SDS011;24468;52.128;9.278;2023-03-21T03:34:43;13.80;;;9.23;;
38717;SDS011;24468;52.128;9.278;2023-03-21T03:37:21;10.63;;;8.63;;
38717;SDS011;24468;52.128;9.278;2023-03-21T03:40:02;11.52;;;8.77;;
38717;SDS011;24468;52.128;9.278;2023-03-21T03:42:42;12.73;;;8.65;;
38717;SDS011;24468;52.128;9.278;2023-03-21T03:45:15;12.73;;;10.18;;
38717;SDS011;24468;52.128;9.278;2023-03-21T03:47:46;11.55;;;9.00;;
38717;SDS011;24468;52.128;9.278;2023-03-21T03:50:30;14.80;;;11.40;;
38717;SDS011;24468;52.128;9.278;2023-03-21T03:55:44;16.48;;;12.10;;
38717;SDS011;24468;52.128;9.278;2023-03-21T03:58:10;14.65;;;11.77;;
38717;SDS011;24468;52.128;9.278;2023-03-21T04:00:36;17.48;;;12.10;;
38717;SDS011;24468;52.128;9.278;2023-03-21T04:03:03;15.93;;;11.90;;
38717;SDS011;24468;52.128;9.278;2023-03-21T04:05:31;16.33;;;12.07;;
38717;SDS011;24468;52.128;9.278;2023-03-21T04:07:57;18.70;;;12.10;;
38717;SDS011;24468;52.128;9.278;2023-03-21T04:10:22;20.10;;;13.15;;
38717;SDS011;24468;52.128;9.278;2023-03-21T04:12:48;19.10;;;14.13;;
38717;SDS011;24468;52.128;9.278;2023-03-21T04:15:14;18.27;;;13.70;;
38717;SDS011;24468;52.128;9.278;2023-03-21T04:17:40;17.38;;;12.73;;
38717;SDS011;24468;52.128;9.278;2023-03-21T04:20:05;18.92;;;13.30;;
38717;SDS011;24468;52.128;9.278;2023-03-21T04:22:32;24.10;;;15.15;;
38717;SDS011;24468;52.128;9.278;2023-03-21T04:24:58;19.17;;;13.38;;
38717;SDS011;24468;52.128;9.278;2023-03-21T04:27:25;18.58;;;13.23;;
38717;SDS011;24468;52.128;9.278;2023-03-21T04:29:52;21.65;;;13.98;;
38717;SDS011;24468;52.128;9.278;2023-03-21T04:32:17;18.63;;;13.23;;
38717;SDS011;24468;52.128;9.278;2023-03-21T04:34:43;24.15;;;14.45;;
38717;SDS011;24468;52.128;9.278;2023-03-21T04:37:14;20.83;;;15.15;;
38717;SDS011;24468;52.128;9.278;2023-03-21T04:39:44;20.17;;;14.15;;
38717;SDS011;24468;52.128;9.278;2023-03-21T04:42:11;28.35;;;15.63;;
38717;SDS011;24468;52.128;9.278;2023-03-21T04:44:42;23.20;;;16.45;;
38717;SDS011;24468;52.128;9.278;2023-03-21T04:47:09;21.52;;;15.25;;
38717;SDS011;24468;52.128;9.278;2023-03-21T04:49:37;24.30;;;14.57;;
38717;SDS011;24468;52.128;9.278;2023-03-21T04:52:03;23.20;;;13.68;;
38717;SDS011;24468;52.128;9.278;2023-03-21T04:54:29;28.15;;;15.65;;
38717;SDS011;24468;52.128;9.278;2023-03-21T04:56:56;23.45;;;14.45;;
38717;SDS011;24468;52.128;9.278;2023-03-21T04:59:22;25.88;;;15.52;;
38717;SDS011;24468;52.128;9.278;2023-03-21T05:01:48;25.70;;;14.55;;
38717;SDS011;24468;52.128;9.278;2023-03-21T05:04:14;19.65;;;12.43;;
38717;SDS011;24468;52.128;9.278;2023-03-21T05:06:41;22.00;;;13.43;;
38717;SDS011;24468;52.128;9.278;2023-03-21T05:09:07;24.33;;;13.68;;
38717;SDS011;24468;52.128;9.278;2023-03-21T05:11:35;22.70;;;14.43;;
38717;SDS011;24468;52.128;9.278;2023-03-21T05:14:06;20.73;;;13.68;;
38717;SDS011;24468;52.128;9.278;2023-03-21T05:16:34;24.23;;;13.32;;
38717;SDS011;24468;52.128;9.278;2023-03-21T05:19:02;25.27;;;14.95;;
38717;SDS011;24468;52.128;9.278;2023-03-21T05:21:28;22.30;;;13.90;;
38717;SDS011;24468;52.128;9.278;2023-03-21T05:23:58;24.10;;;13.57;;
38717;SDS011;24468;52.128;9.278;2023-03-21T05:26:28;25.35;;;13.68;;
38717;SDS011;24468;52.128;9.278;2023-03-21T05:28:54;26.10;;;12.95;;
38717;SDS011;24468;52.128;9.278;2023-03-21T05:31:20;23.15;;;13.70;;
38717;SDS011;24468;52.128;9.278;2023-03-21T05:33:46;26.48;;;14.35;;
38717;SDS011;24468;52.128;9.278;2023-03-21T05:36:12;19.73;;;13.88;;
38717;SDS011;24468;52.128;9.278;2023-03-21T05:38:39;23.23;;;13.88;;
38717;SDS011;24468;52.128;9.278;2023-03-21T05:41:10;21.45;;;13.27;;
38717;SDS011;24468;52.128;9.278;2023-03-21T05:43:40;32.58;;;14.50;;
38717;SDS011;24468;52.128;9.278;2023-03-21T05:46:06;23.90;;;12.57;;
38717;SDS011;24468;52.128;9.278;2023-03-21T05:48:32;26.42;;;15.50;;
38717;SDS011;24468;52.128;9.278;2023-03-21T05:50:58;24.05;;;13.55;;
38717;SDS011;24468;52.128;9.278;2023-03-21T05:53:25;19.45;;;12.43;;
38717;SDS011;24468;52.128;9.278;2023-03-21T05:55:51;19.35;;;12.07;;
38717;SDS011;24468;52.128;9.278;2023-03-21T05:58:16;18.13;;;12.63;;
38717;SDS011;24468;52.128;9.278;2023-03-21T06:00:42;18.08;;;11.88;;
38717;SDS011;24468;52.128;9.278;2023-03-21T06:03:07;20.52;;;12.68;;
38717;SDS011;24468;52.128;9.278;2023-03-21T06:05:33;25.08;;;13.05;;
38717;SDS011;24468;52.128;9.278;2023-03-21T06:07:58;16.17;;;11.93;;
38717;SDS011;24468;52.128;9.278;2023-03-21T06:10:24;17.38;;;11.98;;
38717;SDS011;24468;52.128;9.278;2023-03-21T06:12:50;20.70;;;12.60;;
38717;SDS011;24468;52.128;9.278;2023-03-21T06:15:15;18.70;;;11.90;;
38717;SDS011;24468;52.128;9.278;2023-03-21T06:17:41;20.55;;;12.07;;
38717;SDS011;24468;52.128;9.278;2023-03-21T06:20:06;29.88;;;11.93;;
38717;SDS011;24468;52.128;9.278;2023-03-21T06:22:34;19.85;;;11.30;;
38717;SDS011;24468;52.128;9.278;2023-03-21T06:25:00;18.27;;;11.93;;
38717;SDS011;24468;52.128;9.278;2023-03-21T06:27:26;24.83;;;13.23;;
38717;SDS011;24468;52.128;9.278;2023-03-21T06:29:52;19.42;;;11.88;;
38717;SDS011;24468;52.128;9.278;2023-03-21T06:32:17;21.38;;;11.90;;
38717;SDS011;24468;52.128;9.278;2023-03-21T06:34:43;31.92;;;13.02;;
38717;SDS011;24468;52.128;9.278;2023-03-21T06:37:08;17.75;;;10.27;;
38717;SDS011;24468;52.128;9.278;2023-03-21T06:39:34;22.33;;;12.63;;
38717;SDS011;24468;52.128;9.278;2023-03-21T06:42:00;19.08;;;12.48;;
38717;SDS011;24468;52.128;9.278;2023-03-21T06:44:26;17.73;;;11.98;;
38717;SDS011;24468;52.128;9.278;2023-03-21T06:46:52;19.38;;;12.60;;
38717;SDS011;24468;52.128;9.278;2023-03-21T06:49:19;19.40;;;10.43;;
38717;SDS011;24468;52.128;9.278;2023-03-21T06:51:45;16.65;;;10.00;;
38717;SDS011;24468;52.128;9.278;2023-03-21T06:54:10;17.15;;;11.00;;
38717;SDS011;24468;52.128;9.278;2023-03-21T06:56:38;17.92;;;10.90;;
38717;SDS011;24468;52.128;9.278;2023-03-21T06:59:05;18.25;;;11.75;;
38717;SDS011;24468;52.128;9.278;2023-03-21T07:01:30;23.70;;;12.45;;
38717;SDS011;24468;52.128;9.278;2023-03-21T07:03:56;17.05;;;10.10;;
38717;SDS011;24468;52.128;9.278;2023-03-21T07:06:23;16.08;;;10.98;;
38717;SDS011;24468;52.128;9.278;2023-03-21T07:08:50;17.77;;;10.75;;
38717;SDS011;24468;52.128;9.278;2023-03-21T07:11:17;19.80;;;11.18;;
38717;SDS011;24468;52.128;9.278;2023-03-21T07:13:43;18.77;;;11.27;;
38717;SDS011;24468;52.128;9.278;2023-03-21T07:16:09;18.08;;;10.35;;
38717;SDS011;24468;52.128;9.278;2023-03-21T07:18:35;19.05;;;11.65;;
38717;SDS011;24468;52.128;9.278;2023-03-21T07:21:02;24.25;;;13.40;;
38717;SDS011;24468;52.128;9.278;2023-03-21T07:23:28;24.50;;;10.95;;
38717;SDS011;24468;52.128;9.278;2023-03-21T07:25:54;19.08;;;10.57;;
38717;SDS011;24468;52.128;9.278;2023-03-21T07:28:20;21.15;;;12.18;;
38717;SDS011;24468;52.128;9.278;2023-03-21T07:30:51;25.63;;;13.68;;
38717;SDS011;24468;52.128;9.278;2023-03-21T07:33:22;22.85;;;13.02;;
38717;SDS011;24468;52.128;9.278;2023-03-21T07:35:49;19.25;;;11.48;;
38717;SDS011;24468;52.128;9.278;2023-03-21T07:38:15;25.42;;;12.35;;
38717;SDS011;24468;52.128;9.278;2023-03-21T07:40:42;20.80;;;11.48;;
38717;SDS011;24468;52.128;9.278;2023-03-21T07:43:09;16.77;;;11.10;;
38717;SDS011;24468;52.128;9.278;2023-03-21T07:45:34;17.77;;;10.52;;
38717;SDS011;24468;52.128;9.278;2023-03-21T07:48:00;19.77;;;11.77;;
38717;SDS011;24468;52.128;9.278;2023-03-21T07:50:26;18.27;;;11.52;;
38717;SDS011;24468;52.128;9.278;2023-03-21T07:52:51;25.83;;;11.93;;
38717;SDS011;24468;52.128;9.278;2023-03-21T07:55:18;19.70;;;11.52;;
38717;SDS011;24468;52.128;9.278;2023-03-21T07:57:44;17.95;;;10.63;;
38717;SDS011;24468;52.128;9.278;2023-03-21T08:00:13;22.25;;;11.40;;
38717;SDS011;24468;52.128;9.278;2023-03-21T08:02:46;15.15;;;10.40;;
38717;SDS011;24468;52.128;9.278;2023-03-21T08:05:18;18.98;;;11.10;;
38717;SDS011;24468;52.128;9.278;2023-03-21T08:07:47;19.50;;;12.10;;
38717;SDS011;24468;52.128;9.278;2023-03-21T08:10:13;16.58;;;10.15;;
38717;SDS011;24468;52.128;9.278;2023-03-21T08:12:39;16.45;;;10.30;;
38717;SDS011;24468;52.128;9.278;2023-03-21T08:15:05;17.27;;;10.70;;
38717;SDS011;24468;52.128;9.278;2023-03-21T08:17:32;17.65;;;10.48;;
38717;SDS011;24468;52.128;9.278;2023-03-21T08:19:59;19.98;;;10.57;;
38717;SDS011;24468;52.128;9.278;2023-03-21T08:22:24;13.98;;;9.50;;
38717;SDS011;24468;52.128;9.278;2023-03-21T08:24:50;15.27;;;9.38;;
38717;SDS011;24468;52.128;9.278;2023-03-21T08:27:16;16.88;;;10.07;;
38717;SDS011;24468;52.128;9.278;2023-03-21T08:29:41;15.77;;;10.70;;
38717;SDS011;24468;52.128;9.278;2023-03-21T08:32:07;16.15;;;9.52;;
38717;SDS011;24468;52.128;9.278;2023-03-21T08:34:33;17.77;;;10.20;;
38717;SDS011;24468;52.128;9.278;2023-03-21T08:36:59;18.75;;;10.25;;
38717;SDS011;24468;52.128;9.278;2023-03-21T08:39:25;17.85;;;9.15;;
38717;SDS011;24468;52.128;9.278;2023-03-21T08:41:51;19.02;;;10.90;;
38717;SDS011;24468;52.128;9.278;2023-03-21T08:44:16;13.90;;;9.32;;
38717;SDS011;24468;52.128;9.278;2023-03-21T08:46:42;16.10;;;9.98;;
38717;SDS011;24468;52.128;9.278;2023-03-21T08:49:07;20.40;;;10.20;;
38717;SDS011;24468;52.128;9.278;2023-03-21T08:51:33;17.92;;;9.48;;
38717;SDS011;24468;52.128;9.278;2023-03-21T08:54:01;18.17;;;9.68;;
38717;SDS011;24468;52.128;9.278;2023-03-21T08:56:27;13.23;;;8.77;;
38717;SDS011;24468;52.128;9.278;2023-03-21T08:58:53;14.95;;;8.70;;
38717;SDS011;24468;52.128;9.278;2023-03-21T09:01:18;16.60;;;10.65;;
38717;SDS011;24468;52.128;9.278;2023-03-21T09:03:44;15.32;;;9.68;;
38717;SDS011;24468;52.128;9.278;2023-03-21T09:06:09;13.10;;;8.80;;
38717;SDS011;24468;52.128;9.278;2023-03-21T09:08:38;18.20;;;8.90;;
38717;SDS011;24468;52.128;9.278;2023-03-21T09:11:05;17.35;;;9.57;;
38717;SDS011;24468;52.128;9.278;2023-03-21T09:13:32;16.83;;;8.30;;
38717;SDS011;24468;52.128;9.278;2023-03-21T09:15:58;17.13;;;8.77;;
38717;SDS011;24468;52.128;9.278;2023-03-21T09:18:25;18.45;;;9.32;;
38717;SDS011;24468;52.128;9.278;2023-03-21T09:21:09;19.05;;;9.00;;
38717;SDS011;24468;52.128;9.278;2023-03-21T09:23:38;15.60;;;8.43;;
38717;SDS011;24468;52.128;9.278;2023-03-21T09:26:06;15.85;;;9.07;;
38717;SDS011;24468;52.128;9.278;2023-03-21T09:28:33;13.82;;;8.23;;
38717;SDS011;24468;52.128;9.278;2023-03-21T09:31:01;14.13;;;8.70;;
38717;SDS011;24468;52.128;9.278;2023-03-21T09:33:27;17.25;;;8.27;;
38717;SDS011;24468;52.128;9.278;2023-03-21T09:35:54;16.77;;;8.32;;
38717;SDS011;24468;52.128;9.278;2023-03-21T09:38:20;16.67;;;8.15;;
38717;SDS011;24468;52.128;9.278;2023-03-21T09:46:18;14.55;;;8.80;;
38717;SDS011;24468;52.128;9.278;2023-03-21T09:48:48;18.37;;;9.83;;
38717;SDS011;24468;52.128;9.278;2023-03-21T09:51:27;13.63;;;7.90;;
38717;SDS011;24468;52.128;9.278;2023-03-21T09:54:00;18.60;;;8.65;;
38717;SDS011;24468;52.128;9.278;2023-03-21T09:56:32;14.48;;;8.80;;
38717;SDS011;24468;52.128;9.278;2023-03-21T09:59:00;13.20;;;7.93;;
38717;SDS011;24468;52.128;9.278;2023-03-21T10:01:31;14.15;;;7.60;;
38717;SDS011;24468;52.128;9.278;2023-03-21T10:04:06;9.95;;;7.68;;
38717;SDS011;24468;52.128;9.278;2023-03-21T10:06:37;14.73;;;8.32;;
38717;SDS011;24468;52.128;9.278;2023-03-21T10:09:06;13.98;;;7.45;;
38717;SDS011;24468;52.128;9.278;2023-03-21T10:14:24;10.02;;;6.88;;
38717;SDS011;24468;52.128;9.278;2023-03-21T10:20:15;13.15;;;6.68;;
38717;SDS011;24468;52.128;9.278;2023-03-21T10:22:42;13.10;;;7.75;;
38717;SDS011;24468;52.128;9.278;2023-03-21T10:25:12;17.95;;;8.35;;
38717;SDS011;24468;52.128;9.278;2023-03-21T10:30:14;11.40;;;6.90;;
38717;SDS011;24468;52.128;9.278;2023-03-21T10:33:00;15.43;;;7.82;;
38717;SDS011;24468;52.128;9.278;2023-03-21T10:35:30;12.82;;;7.07;;
38717;SDS011;24468;52.128;9.278;2023-03-21T10:37:58;13.18;;;7.85;;
38717;SDS011;24468;52.128;9.278;2023-03-21T10:40:25;11.40;;;7.15;;
38717;SDS011;24468;52.128;9.278;2023-03-21T10:42:53;11.82;;;6.97;;
38717;SDS011;24468;52.128;9.278;2023-03-21T10:45:55;14.93;;;7.72;;
38717;SDS011;24468;52.128;9.278;2023-03-21T10:48:22;15.35;;;7.85;;
38717;SDS011;24468;52.128;9.278;2023-03-21T10:50:49;13.73;;;8.55;;
38717;SDS011;24468;52.128;9.278;2023-03-21T10:53:19;15.63;;;8.07;;
38717;SDS011;24468;52.128;9.278;2023-03-21T10:56:15;15.57;;;8.10;;
38717;SDS011;24468;52.128;9.278;2023-03-21T10:58:45;19.27;;;8.55;;
38717;SDS011;24468;52.128;9.278;2023-03-21T11:01:23;15.60;;;7.95;;
38717;SDS011;24468;52.128;9.278;2023-03-21T11:03:59;15.18;;;7.28;;
38717;SDS011;24468;52.128;9.278;2023-03-21T11:06:31;13.93;;;8.00;;
38717;SDS011;24468;52.128;9.278;2023-03-21T11:09:05;19.80;;;9.13;;
38717;SDS011;24468;52.128;9.278;2023-03-21T11:11:38;12.65;;;8.18;;
38717;SDS011;24468;52.128;9.278;2023-03-21T11:14:42;18.27;;;9.27;;
38717;SDS011;24468;52.128;9.278;2023-03-21T11:19:52;22.77;;;9.07;;
38717;SDS011;24468;52.128;9.278;2023-03-21T11:22:28;16.13;;;7.78;;
38717;SDS011;24468;52.128;9.278;2023-03-21T11:25:02;16.48;;;9.52;;
38717;SDS011;24468;52.128;9.278;2023-03-21T11:27:36;16.52;;;9.10;;
38717;SDS011;24468;52.128;9.278;2023-03-21T11:30:16;13.73;;;9.07;;
38717;SDS011;24468;52.128;9.278;2023-03-21T11:32:54;17.00;;;9.23;;
38717;SDS011;24468;52.128;9.278;2023-03-21T11:35:36;16.92;;;9.23;;
38717;SDS011;24468;52.128;9.278;2023-03-21T11:38:03;16.17;;;9.13;;
38717;SDS011;24468;52.128;9.278;2023-03-21T11:40:32;19.48;;;9.65;;
38717;SDS011;24468;52.128;9.278;2023-03-21T11:43:01;15.57;;;9.00;;
38717;SDS011;24468;52.128;9.278;2023-03-21T11:45:54;11.90;;;9.30;;
38717;SDS011;24468;52.128;9.278;2023-03-21T11:48:37;17.00;;;8.57;;
38717;SDS011;24468;52.128;9.278;2023-03-21T11:56:32;12.70;;;7.05;;
38717;SDS011;24468;52.128;9.278;2023-03-21T12:05:00;13.55;;;7.85;;
38717;SDS011;24468;52.128;9.278;2023-03-21T12:14:12;10.88;;;6.95;;
38717;SDS011;24468;52.128;9.278;2023-03-21T12:19:47;11.77;;;7.70;;
38717;SDS011;24468;52.128;9.278;2023-03-21T12:22:49;11.43;;;6.97;;
38717;SDS011;24468;52.128;9.278;2023-03-21T12:25:38;11.00;;;8.05;;
38717;SDS011;24468;52.128;9.278;2023-03-21T12:31:04;15.35;;;6.45;;
38717;SDS011;24468;52.128;9.278;2023-03-21T12:33:39;10.90;;;6.70;;
38717;SDS011;24468;52.128;9.278;2023-03-21T12:42:12;9.60;;;6.40;;
38717;SDS011;24468;52.128;9.278;2023-03-21T12:45:17;13.70;;;5.70;;
38717;SDS011;24468;52.128;9.278;2023-03-21T12:50:50;11.15;;;6.50;;
38717;SDS011;24468;52.128;9.278;2023-03-21T12:53:54;8.38;;;5.28;;
38717;SDS011;24468;52.128;9.278;2023-03-21T12:56:29;10.10;;;5.75;;
38717;SDS011;24468;52.128;9.278;2023-03-21T13:01:55;9.27;;;5.13;;
38717;SDS011;24468;52.128;9.278;2023-03-21T13:04:35;9.32;;;5.80;;
38717;SDS011;24468;52.128;9.278;2023-03-21T13:07:47;9.60;;;5.68;;
38717;SDS011;24468;52.128;9.278;2023-03-21T13:10:19;9.55;;;6.30;;
38717;SDS011;24468;52.128;9.278;2023-03-21T13:12:54;13.70;;;6.35;;
38717;SDS011;24468;52.128;9.278;2023-03-21T13:16:08;11.15;;;6.30;;
38717;SDS011;24468;52.128;9.278;2023-03-21T13:26:56;7.05;;;6.15;;
38717;SDS011;24468;52.128;9.278;2023-03-21T13:32:09;8.93;;;5.63;;
38717;SDS011;24468;52.128;9.278;2023-03-21T13:35:02;10.93;;;6.13;;
38717;SDS011;24468;52.128;9.278;2023-03-21T13:37:41;9.32;;;5.22;;
38717;SDS011;24468;52.128;9.278;2023-03-21T13:40:26;9.80;;;5.03;;
38717;SDS011;24468;52.128;9.278;2023-03-21T13:43:28;9.05;;;4.78;;
38717;SDS011;24468;52.128;9.278;2023-03-21T13:54:17;14.00;;;4.72;;
38717;SDS011;24468;52.128;9.278;2023-03-21T13:57:03;6.32;;;3.95;;
38717;SDS011;24468;52.128;9.278;2023-03-21T14:04:35;7.18;;;4.18;;
38717;SDS011;24468;52.128;9.278;2023-03-21T14:07:06;8.70;;;3.47;;
38717;SDS011;24468;52.128;9.278;2023-03-21T14:09:48;6.38;;;3.55;;
38717;SDS011;24468;52.128;9.278;2023-03-21T14:12:21;7.22;;;3.70;;
38717;SDS011;24468;52.128;9.278;2023-03-21T14:14:53;7.70;;;3.45;;
38717;SDS011;24468;52.128;9.278;2023-03-21T14:17:29;5.43;;;3.40;;
38717;SDS011;24468;52.128;9.278;2023-03-21T14:20:02;7.63;;;4.05;;
38717;SDS011;24468;52.128;9.278;2023-03-21T14:22:47;7.45;;;3.17;;
38717;SDS011;24468;52.128;9.278;2023-03-21T14:25:14;5.43;;;3.70;;
38717;SDS011;24468;52.128;9.278;2023-03-21T14:27:47;9.68;;;4.55;;
38717;SDS011;24468;52.128;9.278;2023-03-21T14:30:24;8.43;;;4.20;;
38717;SDS011;24468;52.128;9.278;2023-03-21T14:32:58;5.30;;;3.55;;
38717;SDS011;24468;52.128;9.278;2023-03-21T14:35:46;9.95;;;3.75;;
38717;SDS011;24468;52.128;9.278;2023-03-21T14:38:20;6.45;;;3.60;;
38717;SDS011;24468;52.128;9.278;2023-03-21T14:40:50;6.90;;;3.63;;
38717;SDS011;24468;52.128;9.278;2023-03-21T14:43:19;7.75;;;3.58;;
38717;SDS011;24468;52.128;9.278;2023-03-21T14:45:48;5.70;;;3.13;;
38717;SDS011;24468;52.128;9.278;2023-03-21T14:48:17;5.68;;;3.65;;
38717;SDS011;24468;52.128;9.278;2023-03-21T14:50:53;6.82;;;3.70;;
38717;SDS011;24468;52.128;9.278;2023-03-21T14:53:28;9.48;;;4.10;;
38717;SDS011;24468;52.128;9.278;2023-03-21T14:56:07;6.60;;;4.40;;
38717;SDS011;24468;52.128;9.278;2023-03-21T14:58:50;8.25;;;5.50;;
38717;SDS011;24468;52.128;9.278;2023-03-21T15:01:22;10.32;;;5.03;;
38717;SDS011;24468;52.128;9.278;2023-03-21T15:03:54;5.63;;;3.55;;
38717;SDS011;24468;52.128;9.278;2023-03-21T15:06:23;6.45;;;3.30;;
38717;SDS011;24468;52.128;9.278;2023-03-21T15:08:56;6.95;;;3.28;;
38717;SDS011;24468;52.128;9.278;2023-03-21T15:11:31;15.35;;;6.55;;
38717;SDS011;24468;52.128;9.278;2023-03-21T15:14:01;15.80;;;7.30;;
38717;SDS011;24468;52.128;9.278;2023-03-21T15:16:34;8.95;;;5.55;;
38717;SDS011;24468;52.128;9.278;2023-03-21T15:19:00;13.88;;;6.90;;
38717;SDS011;24468;52.128;9.278;2023-03-21T15:21:30;11.90;;;6.70;;
38717;SDS011;24468;52.128;9.278;2023-03-21T15:24:03;9.93;;;6.95;;
38717;SDS011;24468;52.128;9.278;2023-03-21T15:26:53;6.70;;;4.40;;
38717;SDS011;24468;52.128;9.278;2023-03-21T15:29:26;7.35;;;3.83;;
38717;SDS011;24468;52.128;9.278;2023-03-21T15:31:52;5.18;;;4.63;;
38717;SDS011;24468;52.128;9.278;2023-03-21T15:34:20;6.60;;;4.88;;
38717;SDS011;24468;52.128;9.278;2023-03-21T15:36:56;8.77;;;5.90;;
38717;SDS011;24468;52.128;9.278;2023-03-21T15:39:29;6.53;;;5.05;;
38717;SDS011;24468;52.128;9.278;2023-03-21T15:41:56;7.43;;;4.80;;
38717;SDS011;24468;52.128;9.278;2023-03-21T15:44:54;6.03;;;4.80;;
38717;SDS011;24468;52.128;9.278;2023-03-21T15:50:25;4.28;;;3.38;;
38717;SDS011;24468;52.128;9.278;2023-03-21T15:53:02;6.95;;;4.07;;
38717;SDS011;24468;52.128;9.278;2023-03-21T15:55:36;4.30;;;3.53;;
38717;SDS011;24468;52.128;9.278;2023-03-21T15:58:13;6.47;;;3.80;;
38717;SDS011;24468;52.128;9.278;2023-03-21T16:00:46;5.10;;;3.50;;
38717;SDS011;24468;52.128;9.278;2023-03-21T16:03:20;7.60;;;4.53;;
38717;SDS011;24468;52.128;9.278;2023-03-21T16:08:26;6.70;;;3.05;;
38717;SDS011;24468;52.128;9.278;2023-03-21T16:11:04;7.10;;;5.80;;
38717;SDS011;24468;52.128;9.278;2023-03-21T16:13:47;6.43;;;4.28;;
38717;SDS011;24468;52.128;9.278;2023-03-21T16:16:14;4.22;;;3.28;;
38717;SDS011;24468;52.128;9.278;2023-03-21T16:18:48;6.63;;;3.70;;
38717;SDS011;24468;52.128;9.278;2023-03-21T16:21:16;6.45;;;3.67;;
38717;SDS011;24468;52.128;9.278;2023-03-21T16:23:44;7.97;;;3.70;;
38717;SDS011;24468;52.128;9.278;2023-03-21T16:26:15;4.85;;;2.95;;
38717;SDS011;24468;52.128;9.278;2023-03-21T16:28:44;4.78;;;3.20;;
38717;SDS011;24468;52.128;9.278;2023-03-21T16:31:14;6.35;;;3.30;;
38717;SDS011;24468;52.128;9.278;2023-03-21T16:33:43;4.68;;;3.17;;
38717;SDS011;24468;52.128;9.278;2023-03-21T16:38:46;5.15;;;3.40;;
38717;SDS011;24468;52.128;9.278;2023-03-21T16:41:14;4.63;;;3.67;;
38717;SDS011;24468;52.128;9.278;2023-03-21T16:43:41;7.97;;;3.05;;
38717;SDS011;24468;52.128;9.278;2023-03-21T16:46:14;4.82;;;3.28;;
38717;SDS011;24468;52.128;9.278;2023-03-21T16:48:44;6.28;;;3.60;;
38717;SDS011;24468;52.128;9.278;2023-03-21T16:51:16;5.22;;;3.20;;
38717;SDS011;24468;52.128;9.278;2023-03-21T16:53:49;6.40;;;3.65;;
38717;SDS011;24468;52.128;9.278;2023-03-21T16:56:25;5.68;;;3.22;;
38717;SDS011;24468;52.128;9.278;2023-03-21T16:59:01;4.88;;;2.90;;